Dobrodošli na spletni strani vremenske postaje Senovo. Vse informacije so informativnega značaja, saj vremenska postaja ni del državne mreže meteoroloških postaj. AKTUALNIH OBVESTIL NI.


Sneg/Led Od: 23-02-2018 00:00 Do: 23:59 Opozorilo za: Sneg/Led Stopnja: Rumena info button

Pogled proti Armezu več informacij Pogled proti Armezu


Lisca več informacij Lisca


Radar strel več informacij blitzortung!


opozorilo za sneg/led več informacij rain snow radar


Obiščite še:

Template documentation
and downloads

And another site



Weather Underground, zgodovina - Tekstovno

Dnevni povzetek za Januar 22, 2018 Enote:  Obe    Angleško   Metrično
« Predhodni Dan
Naslednji Dan »
Dnevni Tedenski Mesečni Letni Po meri
  Višja: Nižja: Povprečje:
Temperatura: TemperatureC °F /  -17.8 °C -3.1 °F /  -19.5 °C 0.3 °F /  -17.6 °C
Točka rosišča: DewpointC °F /  -17.8 °C -4.9 °F /  -20.5 °C -2.8 °F /  -19.3 °C
Vlažnost: Humidity % 56 % 80 %
Hitrost vetra: WindSpeedKMH mph /  0 km/h - 1.1 mph /  1.8 km/h
Sunki vetra: WindSpeedGustKMH mph /  0 km/h - -
Veter:- - WSW
Zračni tlak: PressurehPa in /  0 hPa 1010.0 in /  34198.6 hPa -
Padavine: 0.0 in /  0 mm    
Historical Graphs
 
 
Tabelarni podarki za Januar 22, 2018
Čas Temperatura Točka rosišča Zračni tlak Veter Hitrost vetra Sunki vetra Vlažnost Intenziteta padavin (urna)
TemperatureC °F /  -17.8 °C DewpointC °F /  -17.8 °C PressurehPa in /  0 hPa Calm     Humidity % HourlyPrecipMM in /  0 mm
00:09 -0.3 °F /  -17.9 °C -2.3 °F /  -19.1 °C 1016.1 in /  34405.1 hPa Calm     86 % 0.0 in /  0 mm
00:14 -0.3 °F /  -17.9 °C -2.3 °F /  -19.1 °C 1016.1 in /  34405.1 hPa Calm     86 % 0.0 in /  0 mm
00:19 -0.3 °F /  -17.9 °C -2.3 °F /  -19.1 °C 1016.1 in /  34405.1 hPa Calm     86 % 0.0 in /  0 mm
00:24 -0.3 °F /  -17.9 °C -2.3 °F /  -19.1 °C 1016.1 in /  34405.1 hPa Calm     86 % 0.0 in /  0 mm
00:29 -0.4 °F /  -18 °C -2.4 °F /  -19.1 °C 1016.1 in /  34405.1 hPa Calm     86 % 0.0 in /  0 mm
00:34 -0.5 °F /  -18.1 °C -2.6 °F /  -19.2 °C 1016.1 in /  34405.1 hPa Calm     86 % 0.0 in /  0 mm
00:39 -0.5 °F /  -18.1 °C -2.6 °F /  -19.2 °C 1016.1 in /  34405.1 hPa Calm     86 % 0.0 in /  0 mm
00:44 -0.6 °F /  -18.1 °C -2.5 °F /  -19.2 °C 1016.1 in /  34405.1 hPa Calm     87 % 0.0 in /  0 mm
00:49 -0.7 °F /  -18.2 °C -2.6 °F /  -19.2 °C 1016.1 in /  34405.1 hPa Calm     87 % 0.0 in /  0 mm
00:54 -0.8 °F /  -18.2 °C -2.7 °F /  -19.3 °C 1016.1 in /  34405.1 hPa Calm     87 % 0.0 in /  0 mm
00:59 -0.9 °F /  -18.3 °C -2.8 °F /  -19.3 °C 1016.1 in /  34405.1 hPa Calm     87 % 0.0 in /  0 mm
01:04 -1.0 °F /  -18.3 °C -2.9 °F /  -19.4 °C 1016.1 in /  34405.1 hPa Calm     87 % 0.0 in /  0 mm
01:09 -1.0 °F /  -18.3 °C -2.9 °F /  -19.4 °C 1016.1 in /  34405.1 hPa Calm     87 % 0.0 in /  0 mm
01:14 -1.1 °F /  -18.4 °C -3.0 °F /  -19.4 °C 1016.1 in /  34405.1 hPa Calm     87 % 0.0 in /  0 mm
01:19 -1.2 °F /  -18.4 °C -3.1 °F /  -19.5 °C 1016.1 in /  34405.1 hPa Calm     87 % 0.0 in /  0 mm
01:24 -1.2 °F /  -18.4 °C -3.1 °F /  -19.5 °C 1016.1 in /  34405.1 hPa Calm     87 % 0.0 in /  0 mm
01:29 -1.3 °F /  -18.5 °C -3.2 °F /  -19.6 °C 1016.1 in /  34405.1 hPa Calm     87 % 0.0 in /  0 mm
01:34 -1.4 °F /  -18.6 °C -3.3 °F /  -19.6 °C 1016.1 in /  34405.1 hPa Calm     87 % 0.0 in /  0 mm
01:39 -1.4 °F /  -18.6 °C -3.3 °F /  -19.6 °C 1016.1 in /  34405.1 hPa Calm     87 % 0.0 in /  0 mm
01:44 -1.5 °F /  -18.6 °C -3.4 °F /  -19.7 °C 1016.1 in /  34405.1 hPa Calm     87 % 0.0 in /  0 mm
01:49 -1.6 °F /  -18.7 °C -3.5 °F /  -19.7 °C 1016.1 in /  34405.1 hPa Calm     87 % 0.0 in /  0 mm
01:54 -1.7 °F /  -18.7 °C -3.6 °F /  -19.8 °C 1016.1 in /  34405.1 hPa Calm     87 % 0.0 in /  0 mm
01:59 -1.7 °F /  -18.7 °C -3.6 °F /  -19.8 °C 1016.1 in /  34405.1 hPa SW 0.3 mph /  0.5 km/h 4.0 mph /  6.4 km/h 87 % 0.0 in /  0 mm
02:04 -1.8 °F /  -18.8 °C -3.7 °F /  -19.8 °C 1016.1 in /  34405.1 hPa SW 1.0 mph /  1.6 km/h 4.0 mph /  6.4 km/h 87 % 0.0 in /  0 mm
02:09 -1.8 °F /  -18.8 °C -3.5 °F /  -19.7 °C 1016.1 in /  34405.1 hPa WSW 1.1 mph /  1.8 km/h 4.0 mph /  6.4 km/h 88 % 0.0 in /  0 mm
02:14 -1.9 °F /  -18.8 °C -3.6 °F /  -19.8 °C 1016.1 in /  34405.1 hPa NW 0.3 mph /  0.5 km/h 2.6 mph /  4.2 km/h 88 % 0.0 in /  0 mm
02:19 -1.9 °F /  -18.8 °C -3.6 °F /  -19.8 °C 1016.1 in /  34405.1 hPa Calm     88 % 0.0 in /  0 mm
02:24 -2.0 °F /  -18.9 °C -3.7 °F /  -19.8 °C 1016.1 in /  34405.1 hPa Calm     88 % 0.0 in /  0 mm
02:29 -2.1 °F /  -18.9 °C -3.8 °F /  -19.9 °C 1016.1 in /  34405.1 hPa Calm     88 % 0.0 in /  0 mm
02:34 -2.1 °F /  -18.9 °C -3.8 °F /  -19.9 °C 1016.1 in /  34405.1 hPa SW 0.8 mph /  1.3 km/h 3.5 mph /  5.6 km/h 88 % 0.0 in /  0 mm
02:39 -2.3 °F /  -19.1 °C -4.0 °F /  -20 °C 1016.1 in /  34405.1 hPa SW 1.1 mph /  1.8 km/h 3.5 mph /  5.6 km/h 88 % 0.0 in /  0 mm
02:44 -2.3 °F /  -19.1 °C -4.0 °F /  -20 °C 1016.1 in /  34405.1 hPa WSW 1.1 mph /  1.8 km/h 3.2 mph /  5.1 km/h 88 % 0.0 in /  0 mm
02:49 -2.3 °F /  -19.1 °C -4.0 °F /  -20 °C 1016.1 in /  34405.1 hPa WNW 1.1 mph /  1.8 km/h 3.2 mph /  5.1 km/h 88 % 0.0 in /  0 mm
02:54 -2.4 °F /  -19.1 °C -4.1 °F /  -20.1 °C 1016.1 in /  34405.1 hPa NW 0.5 mph /  0.8 km/h 2.6 mph /  4.2 km/h 88 % 0.0 in /  0 mm
02:59 -2.5 °F /  -19.2 °C -4.2 °F /  -20.1 °C 1016.1 in /  34405.1 hPa Calm     88 % 0.0 in /  0 mm
03:04 -2.5 °F /  -19.2 °C -4.2 °F /  -20.1 °C 1016.1 in /  34405.1 hPa Calm     88 % 0.0 in /  0 mm
03:09 -2.6 °F /  -19.2 °C -4.3 °F /  -20.2 °C 1016.1 in /  34405.1 hPa Calm     88 % 0.0 in /  0 mm
03:14 -2.6 °F /  -19.2 °C -4.3 °F /  -20.2 °C 1016.1 in /  34405.1 hPa Calm     88 % 0.0 in /  0 mm
03:19 -2.6 °F /  -19.2 °C -4.3 °F /  -20.2 °C 1016.1 in /  34405.1 hPa Calm     88 % 0.0 in /  0 mm
03:24 -2.7 °F /  -19.3 °C -4.4 °F /  -20.2 °C 1016.1 in /  34405.1 hPa Calm     88 % 0.0 in /  0 mm
03:29 -2.8 °F /  -19.3 °C -4.5 °F /  -20.3 °C 1015.1 in /  34371.3 hPa Calm     88 % 0.0 in /  0 mm
03:34 -2.8 °F /  -19.3 °C -4.5 °F /  -20.3 °C 1015.1 in /  34371.3 hPa Calm     88 % 0.0 in /  0 mm
03:39 -2.8 °F /  -19.3 °C -4.5 °F /  -20.3 °C 1015.1 in /  34371.3 hPa Calm     88 % 0.0 in /  0 mm
03:44 -2.9 °F /  -19.4 °C -4.6 °F /  -20.3 °C 1016.1 in /  34405.1 hPa Calm     88 % 0.0 in /  0 mm
03:54 -3.0 °F /  -19.4 °C -4.6 °F /  -20.3 °C 1016.1 in /  34405.1 hPa Calm     89 % 0.0 in /  0 mm
03:59 -3.0 °F /  -19.4 °C -4.6 °F /  -20.3 °C 1015.1 in /  34371.3 hPa Calm     89 % 0.0 in /  0 mm
04:04 -3.0 °F /  -19.4 °C -4.6 °F /  -20.3 °C 1015.1 in /  34371.3 hPa Calm     89 % 0.0 in /  0 mm
04:09 -3.1 °F /  -19.5 °C -4.7 °F /  -20.4 °C 1015.1 in /  34371.3 hPa NW 0.8 mph /  1.3 km/h 3.2 mph /  5.1 km/h 89 % 0.0 in /  0 mm
04:14 -3.0 °F /  -19.4 °C -4.6 °F /  -20.3 °C 1015.1 in /  34371.3 hPa NW 1.4 mph /  2.3 km/h 3.5 mph /  5.6 km/h 89 % 0.0 in /  0 mm
04:19 -3.0 °F /  -19.4 °C -4.6 °F /  -20.3 °C 1015.1 in /  34371.3 hPa NW 1.0 mph /  1.6 km/h 4.0 mph /  6.4 km/h 89 % 0.0 in /  0 mm
04:24 -3.0 °F /  -19.4 °C -4.6 °F /  -20.3 °C 1015.1 in /  34371.3 hPa NW 0.8 mph /  1.3 km/h 4.0 mph /  6.4 km/h 89 % 0.0 in /  0 mm
04:29 -3.0 °F /  -19.4 °C -4.6 °F /  -20.3 °C 1015.1 in /  34371.3 hPa NW 0.5 mph /  0.8 km/h 3.5 mph /  5.6 km/h 89 % 0.0 in /  0 mm
04:34 -3.0 °F /  -19.4 °C -4.6 °F /  -20.3 °C 1015.1 in /  34371.3 hPa Calm     89 % 0.0 in /  0 mm
04:39 -3.0 °F /  -19.4 °C -4.6 °F /  -20.3 °C 1015.1 in /  34371.3 hPa Calm     89 % 0.0 in /  0 mm
04:44 -3.0 °F /  -19.4 °C -4.6 °F /  -20.3 °C 1015.1 in /  34371.3 hPa Calm   4.0 mph /  6.4 km/h 89 % 0.0 in /  0 mm
04:49 -3.0 °F /  -19.4 °C -4.6 °F /  -20.3 °C 1015.1 in /  34371.3 hPa NNW 1.0 mph /  1.6 km/h 4.3 mph /  6.9 km/h 89 % 0.0 in /  0 mm
04:54 -2.9 °F /  -19.4 °C -4.4 °F /  -20.2 °C 1015.1 in /  34371.3 hPa North 1.0 mph /  1.6 km/h 4.3 mph /  6.9 km/h 89 % 0.0 in /  0 mm
05:04 -2.6 °F /  -19.2 °C -4.2 °F /  -20.1 °C 1015.1 in /  34371.3 hPa South 2.4 mph /  3.9 km/h 4.7 mph /  7.6 km/h 89 % 0.0 in /  0 mm
05:09 -2.5 °F /  -19.2 °C -3.9 °F /  -19.9 °C 1015.1 in /  34371.3 hPa SSE 1.3 mph /  2.1 km/h 4.7 mph /  7.6 km/h 90 % 0.0 in /  0 mm
05:14 -2.5 °F /  -19.2 °C -3.9 °F /  -19.9 °C 1016.1 in /  34405.1 hPa Calm     90 % 0.0 in /  0 mm
05:19 -2.5 °F /  -19.2 °C -3.9 °F /  -19.9 °C 1016.1 in /  34405.1 hPa Calm     90 % 0.0 in /  0 mm
05:24 -2.4 °F /  -19.1 °C -3.8 °F /  -19.9 °C 1016.1 in /  34405.1 hPa Calm   1.8 mph /  2.9 km/h 90 % 0.0 in /  0 mm
05:29 -2.5 °F /  -19.2 °C -3.9 °F /  -19.9 °C 1015.1 in /  34371.3 hPa Calm   1.8 mph /  2.9 km/h 90 % 0.0 in /  0 mm
05:39 -2.5 °F /  -19.2 °C -3.9 °F /  -19.9 °C 1015.1 in /  34371.3 hPa Calm     90 % 0.0 in /  0 mm
05:44 -2.5 °F /  -19.2 °C -3.9 °F /  -19.9 °C 1015.1 in /  34371.3 hPa SSW 0.3 mph /  0.5 km/h 2.6 mph /  4.2 km/h 90 % 0.0 in /  0 mm
05:49 -2.5 °F /  -19.2 °C -3.9 °F /  -19.9 °C 1015.1 in /  34371.3 hPa SSW 0.3 mph /  0.5 km/h 2.6 mph /  4.2 km/h 90 % 0.0 in /  0 mm
05:54 -2.4 °F /  -19.1 °C -3.8 °F /  -19.9 °C 1015.1 in /  34371.3 hPa Calm     90 % 0.0 in /  0 mm
05:59 -2.4 °F /  -19.1 °C -3.8 °F /  -19.9 °C 1015.1 in /  34371.3 hPa Calm     90 % 0.0 in /  0 mm
06:04 -2.4 °F /  -19.1 °C -3.8 °F /  -19.9 °C 1015.1 in /  34371.3 hPa Calm     90 % 0.0 in /  0 mm
06:09 -2.3 °F /  -19.1 °C -3.7 °F /  -19.8 °C 1015.1 in /  34371.3 hPa Calm     90 % 0.0 in /  0 mm
06:14 -2.3 °F /  -19.1 °C -3.7 °F /  -19.8 °C 1015.1 in /  34371.3 hPa Calm     90 % 0.0 in /  0 mm
06:19 -2.3 °F /  -19.1 °C -3.7 °F /  -19.8 °C 1015.1 in /  34371.3 hPa Calm     90 % 0.0 in /  0 mm
06:29 -2.2 °F /  -19 °C -3.4 °F /  -19.7 °C 1015.1 in /  34371.3 hPa Calm     91 % 0.0 in /  0 mm
06:34 -2.2 °F /  -19 °C -3.4 °F /  -19.7 °C 1015.1 in /  34371.3 hPa Calm     91 % 0.0 in /  0 mm
06:39 -2.2 °F /  -19 °C -3.4 °F /  -19.7 °C 1015.1 in /  34371.3 hPa Calm     91 % 0.0 in /  0 mm
06:44 -2.1 °F /  -18.9 °C -3.4 °F /  -19.7 °C 1015.1 in /  34371.3 hPa Calm     91 % 0.0 in /  0 mm
06:49 -2.1 °F /  -18.9 °C -3.4 °F /  -19.7 °C 1015.1 in /  34371.3 hPa Calm     91 % 0.0 in /  0 mm
06:54 -2.1 °F /  -18.9 °C -3.4 °F /  -19.7 °C 1015.1 in /  34371.3 hPa Calm     91 % 0.0 in /  0 mm
06:59 -2.1 °F /  -18.9 °C -3.4 °F /  -19.7 °C 1015.1 in /  34371.3 hPa Calm     91 % 0.0 in /  0 mm
07:04 -2.1 °F /  -18.9 °C -3.4 °F /  -19.7 °C 1015.1 in /  34371.3 hPa Calm     91 % 0.0 in /  0 mm
07:09 -2.1 °F /  -18.9 °C -3.4 °F /  -19.7 °C 1015.1 in /  34371.3 hPa Calm     91 % 0.0 in /  0 mm
07:14 -2.2 °F /  -19 °C -3.4 °F /  -19.7 °C 1015.1 in /  34371.3 hPa Calm     91 % 0.0 in /  0 mm
07:19 -2.2 °F /  -19 °C -3.4 °F /  -19.7 °C 1015.1 in /  34371.3 hPa Calm     91 % 0.0 in /  0 mm
07:34 -2.3 °F /  -19.1 °C -3.6 °F /  -19.8 °C 1015.1 in /  34371.3 hPa Calm     91 % 0.0 in /  0 mm
07:44 -2.3 °F /  -19.1 °C -3.6 °F /  -19.8 °C 1015.1 in /  34371.3 hPa Calm     91 % 0.0 in /  0 mm
07:49 -2.3 °F /  -19.1 °C -3.6 °F /  -19.8 °C 1015.1 in /  34371.3 hPa Calm     91 % 0.0 in /  0 mm
07:54 -2.3 °F /  -19.1 °C -3.6 °F /  -19.8 °C 1015.1 in /  34371.3 hPa Calm     91 % 0.0 in /  0 mm
07:59 -2.3 °F /  -19.1 °C -3.6 °F /  -19.8 °C 1015.1 in /  34371.3 hPa Calm     91 % 0.0 in /  0 mm
08:04 -2.3 °F /  -19.1 °C -3.6 °F /  -19.8 °C 1015.1 in /  34371.3 hPa Calm   4.3 mph /  6.9 km/h 91 % 0.0 in /  0 mm
08:09 -2.3 °F /  -19.1 °C -3.6 °F /  -19.8 °C 1015.1 in /  34371.3 hPa South 1.4 mph /  2.3 km/h 4.7 mph /  7.6 km/h 91 % 0.0 in /  0 mm
08:19 -2.1 °F /  -18.9 °C -3.2 °F /  -19.6 °C 1015.1 in /  34371.3 hPa South 1.0 mph /  1.6 km/h 3.5 mph /  5.6 km/h 92 % 0.0 in /  0 mm
08:24 -2.1 °F /  -18.9 °C -3.2 °F /  -19.6 °C 1015.1 in /  34371.3 hPa WNW 0.3 mph /  0.5 km/h 3.5 mph /  5.6 km/h 92 % 0.0 in /  0 mm
08:29 -2.0 °F /  -18.9 °C -3.1 °F /  -19.5 °C 1015.1 in /  34371.3 hPa WNW 0.3 mph /  0.5 km/h 2.6 mph /  4.2 km/h 92 % 0.0 in /  0 mm
08:34 -1.9 °F /  -18.8 °C -3.2 °F /  -19.6 °C 1015.1 in /  34371.3 hPa WNW 0.5 mph /  0.8 km/h 2.6 mph /  4.2 km/h 91 % 0.0 in /  0 mm
08:44 -1.8 °F /  -18.8 °C -2.9 °F /  -19.4 °C 1015.1 in /  34371.3 hPa South 0.3 mph /  0.5 km/h 3.2 mph /  5.1 km/h 92 % 0.0 in /  0 mm
08:49 -1.7 °F /  -18.7 °C -2.8 °F /  -19.3 °C 1015.1 in /  34371.3 hPa South 0.3 mph /  0.5 km/h 3.2 mph /  5.1 km/h 92 % 0.0 in /  0 mm
08:54 -1.6 °F /  -18.7 °C -2.7 °F /  -19.3 °C 1015.1 in /  34371.3 hPa Calm     92 % 0.0 in /  0 mm
08:59 -1.5 °F /  -18.6 °C -2.6 °F /  -19.2 °C 1015.1 in /  34371.3 hPa Calm     92 % 0.0 in /  0 mm
09:04 -1.5 °F /  -18.6 °C -2.6 °F /  -19.2 °C 1015.1 in /  34371.3 hPa Calm     92 % 0.0 in /  0 mm
09:09 -1.3 °F /  -18.5 °C -2.4 °F /  -19.1 °C 1015.1 in /  34371.3 hPa Calm     92 % 0.0 in /  0 mm
09:14 -1.1 °F /  -18.4 °C -2.2 °F /  -19 °C 1016.1 in /  34405.1 hPa Calm     92 % 0.0 in /  0 mm
09:19 -1.0 °F /  -18.3 °C -2.0 °F /  -18.9 °C 1016.1 in /  34405.1 hPa Calm     93 % 0.0 in /  0 mm
09:24 -0.8 °F /  -18.2 °C -1.9 °F /  -18.8 °C 1016.1 in /  34405.1 hPa Calm     92 % 0.0 in /  0 mm
09:34 -0.4 °F /  -18 °C -1.4 °F /  -18.6 °C 1016.1 in /  34405.1 hPa SSE 1.8 mph /  2.9 km/h 4.3 mph /  6.9 km/h 93 % 0.0 in /  0 mm
09:39 -0.2 °F /  -17.9 °C -1.2 °F /  -18.4 °C 1016.1 in /  34405.1 hPa SSE 1.1 mph /  1.8 km/h 4.3 mph /  6.9 km/h 93 % 0.0 in /  0 mm
09:44 -0.1 °F /  -17.8 °C -1.1 °F /  -18.4 °C 1015.1 in /  34371.3 hPa SSE 0.3 mph /  0.5 km/h 2.6 mph /  4.2 km/h 93 % 0.0 in /  0 mm
09:54 0.2 °F /  -17.7 °C -0.8 °F /  -18.2 °C 1015.1 in /  34371.3 hPa SSE 0.2 mph /  0.3 km/h 2.1 mph /  3.4 km/h 93 % 0.0 in /  0 mm
09:59 0.3 °F /  -17.6 °C -0.7 °F /  -18.2 °C 1015.1 in /  34371.3 hPa Calm     93 % 0.0 in /  0 mm
10:04 0.4 °F /  -17.6 °C -0.4 °F /  -18 °C 1015.1 in /  34371.3 hPa South 0.3 mph /  0.5 km/h 3.2 mph /  5.1 km/h 94 % 0.0 in /  0 mm
10:14 0.6 °F /  -17.4 °C -0.3 °F /  -17.9 °C 1015.1 in /  34371.3 hPa ESE 0.5 mph /  0.8 km/h 4.0 mph /  6.4 km/h 94 % 0.0 in /  0 mm
10:19 0.7 °F /  -17.4 °C -0.2 °F /  -17.9 °C 1015.1 in /  34371.3 hPa ESE 0.5 mph /  0.8 km/h 4.0 mph /  6.4 km/h 94 % 0.0 in /  0 mm
10:24 0.9 °F /  -17.3 °C 0.1 °F /  -17.7 °C 1015.1 in /  34371.3 hPa SSW 0.8 mph /  1.3 km/h 6.1 mph /  9.8 km/h 94 % 0.0 in /  0 mm
10:29 1.1 °F /  -17.2 °C 0.2 °F /  -17.7 °C 1015.1 in /  34371.3 hPa SSW 2.7 mph /  4.3 km/h 6.1 mph /  9.8 km/h 94 % 0.0 in /  0 mm
10:34 1.3 °F /  -17.1 °C 0.4 °F /  -17.6 °C 1015.1 in /  34371.3 hPa SSW 3.5 mph /  5.6 km/h 5.5 mph /  8.9 km/h 94 % 0.0 in /  0 mm
10:39 1.4 °F /  -17 °C 0.6 °F /  -17.4 °C 1015.1 in /  34371.3 hPa SSW 3.9 mph /  6.3 km/h 6.9 mph /  11.1 km/h 94 % 0.0 in /  0 mm
10:44 1.5 °F /  -16.9 °C 0.7 °F /  -17.4 °C 1015.1 in /  34371.3 hPa South 4.8 mph /  7.7 km/h 6.9 mph /  11.1 km/h 94 % 0.0 in /  0 mm
10:54 1.8 °F /  -16.8 °C 0.9 °F /  -17.3 °C 1015.1 in /  34371.3 hPa South 4.0 mph /  6.4 km/h 5.8 mph /  9.3 km/h 94 % 0.0 in /  0 mm
10:59 1.9 °F /  -16.7 °C 1.1 °F /  -17.2 °C 1015.1 in /  34371.3 hPa South 4.2 mph /  6.8 km/h 6.4 mph /  10.3 km/h 94 % 0.0 in /  0 mm
11:04 2.1 °F /  -16.6 °C 1.2 °F /  -17.1 °C 1015.1 in /  34371.3 hPa South 4.5 mph /  7.2 km/h 6.9 mph /  11.1 km/h 94 % 0.0 in /  0 mm
11:09 2.2 °F /  -16.6 °C 1.3 °F /  -17.1 °C 1015.1 in /  34371.3 hPa SSW 4.7 mph /  7.6 km/h 6.9 mph /  11.1 km/h 94 % 0.0 in /  0 mm
11:14 2.4 °F /  -16.4 °C 1.6 °F /  -16.9 °C 1015.1 in /  34371.3 hPa SSW 4.8 mph /  7.7 km/h 6.4 mph /  10.3 km/h 94 % 0.0 in /  0 mm
11:19 2.6 °F /  -16.3 °C 1.7 °F /  -16.8 °C 1015.1 in /  34371.3 hPa South 4.7 mph /  7.6 km/h 6.4 mph /  10.3 km/h 94 % 0.0 in /  0 mm
11:24 2.6 °F /  -16.3 °C 1.7 °F /  -16.8 °C 1015.1 in /  34371.3 hPa South 4.5 mph /  7.2 km/h 6.1 mph /  9.8 km/h 94 % 0.0 in /  0 mm
11:29 2.8 °F /  -16.2 °C 1.9 °F /  -16.7 °C 1015.1 in /  34371.3 hPa SSW 4.3 mph /  6.9 km/h 6.1 mph /  9.8 km/h 94 % 0.0 in /  0 mm
11:34 2.8 °F /  -16.2 °C 1.8 °F /  -16.8 °C 1015.1 in /  34371.3 hPa SSW 3.5 mph /  5.6 km/h 5.8 mph /  9.3 km/h 93 % 0.0 in /  0 mm
11:39 3.0 °F /  -16.1 °C 2.0 °F /  -16.7 °C 1015.1 in /  34371.3 hPa SW 3.7 mph /  6 km/h 9.0 mph /  14.5 km/h 93 % 0.0 in /  0 mm
11:44 3.0 °F /  -16.1 °C 2.0 °F /  -16.7 °C 1015.1 in /  34371.3 hPa WSW 4.7 mph /  7.6 km/h 10.1 mph /  16.3 km/h 93 % 0.0 in /  0 mm
11:49 3.1 °F /  -16.1 °C 1.9 °F /  -16.7 °C 1015.1 in /  34371.3 hPa WSW 5.5 mph /  8.9 km/h 10.1 mph /  16.3 km/h 92 % 0.0 in /  0 mm
11:54 3.1 °F /  -16.1 °C 1.9 °F /  -16.7 °C 1015.1 in /  34371.3 hPa SW 6.6 mph /  10.6 km/h 12.2 mph /  19.6 km/h 92 % 0.0 in /  0 mm
12:04 3.2 °F /  -16 °C 1.9 °F /  -16.7 °C 1014.1 in /  34337.4 hPa SW 6.6 mph /  10.6 km/h 13.0 mph /  20.9 km/h 91 % 0.0 in /  0 mm
12:14 3.3 °F /  -15.9 °C 1.7 °F /  -16.8 °C 1014.1 in /  34337.4 hPa SW 7.9 mph /  12.7 km/h 10.5 mph /  16.9 km/h 89 % 0.0 in /  0 mm
12:24 3.6 °F /  -15.8 °C 1.8 °F /  -16.8 °C 1014.1 in /  34337.4 hPa SW 6.0 mph /  9.7 km/h 14.0 mph /  22.5 km/h 88 % 0.0 in /  0 mm
12:29 3.6 °F /  -15.8 °C 1.6 °F /  -16.9 °C 1013.1 in /  34303.6 hPa SW 6.9 mph /  11.1 km/h 14.0 mph /  22.5 km/h 87 % 0.0 in /  0 mm
12:34 3.6 °F /  -15.8 °C 1.6 °F /  -16.9 °C 1013.1 in /  34303.6 hPa SW 7.6 mph /  12.2 km/h 12.6 mph /  20.3 km/h 87 % 0.0 in /  0 mm
12:39 3.8 °F /  -15.7 °C 1.7 °F /  -16.8 °C 1013.1 in /  34303.6 hPa SW 6.0 mph /  9.7 km/h 9.3 mph /  15 km/h 86 % 0.0 in /  0 mm
12:54 4.1 °F /  -15.5 °C 1.4 °F /  -17 °C 1012.1 in /  34269.7 hPa WSW 5.5 mph /  8.9 km/h 14.0 mph /  22.5 km/h 83 % 0.0 in /  0 mm
12:59 4.2 °F /  -15.4 °C 1.4 °F /  -17 °C 1012.1 in /  34269.7 hPa SW 3.4 mph /  5.5 km/h 6.4 mph /  10.3 km/h 82 % 0.0 in /  0 mm
13:04 4.3 °F /  -15.4 °C 1.3 °F /  -17.1 °C 1012.1 in /  34269.7 hPa South 3.2 mph /  5.1 km/h 6.9 mph /  11.1 km/h 81 % 0.0 in /  0 mm
13:09 4.4 °F /  -15.3 °C 1.2 °F /  -17.1 °C 1012.1 in /  34269.7 hPa SW 4.8 mph /  7.7 km/h 8.7 mph /  14 km/h 80 % 0.0 in /  0 mm
13:14 4.6 °F /  -15.2 °C 1.3 °F /  -17.1 °C 1013.1 in /  34303.6 hPa SW 4.8 mph /  7.7 km/h 8.7 mph /  14 km/h 79 % 0.0 in /  0 mm
13:24 4.6 °F /  -15.2 °C 0.9 °F /  -17.3 °C 1013.1 in /  34303.6 hPa SW 4.5 mph /  7.2 km/h 7.9 mph /  12.7 km/h 77 % 0.0 in /  0 mm
13:29 4.5 °F /  -15.3 °C 0.6 °F /  -17.4 °C 1013.1 in /  34303.6 hPa WSW 3.7 mph /  6 km/h 7.6 mph /  12.2 km/h 76 % 0.0 in /  0 mm
13:34 4.3 °F /  -15.4 °C 0.3 °F /  -17.6 °C 1013.1 in /  34303.6 hPa West 3.7 mph /  6 km/h 8.7 mph /  14 km/h 75 % 0.0 in /  0 mm
13:39 4.3 °F /  -15.4 °C 0.1 °F /  -17.7 °C 1013.1 in /  34303.6 hPa West 5.3 mph /  8.5 km/h 13.7 mph /  22 km/h 74 % 0.0 in /  0 mm
13:44 4.1 °F /  -15.5 °C -0.3 °F /  -17.9 °C 1012.1 in /  34269.7 hPa WNW 6.0 mph /  9.7 km/h 13.7 mph /  22 km/h 73 % 0.0 in /  0 mm
13:49 4.1 °F /  -15.5 °C -0.5 °F /  -18.1 °C 1012.1 in /  34269.7 hPa West 5.1 mph /  8.2 km/h 9.3 mph /  15 km/h 72 % 0.0 in /  0 mm
13:54 4.1 °F /  -15.5 °C -0.7 °F /  -18.2 °C 1012.1 in /  34269.7 hPa West 4.2 mph /  6.8 km/h 6.4 mph /  10.3 km/h 71 % 0.0 in /  0 mm
14:04 4.3 °F /  -15.4 °C -0.9 °F /  -18.3 °C 1012.1 in /  34269.7 hPa WNW 4.2 mph /  6.8 km/h 9.7 mph /  15.6 km/h 69 % 0.0 in /  0 mm
14:14 4.5 °F /  -15.3 °C -0.9 °F /  -18.3 °C 1012.1 in /  34269.7 hPa ESE 2.4 mph /  3.9 km/h 4.7 mph /  7.6 km/h 68 % 0.0 in /  0 mm
14:29 4.9 °F /  -15.1 °C -1.1 °F /  -18.4 °C 1012.1 in /  34269.7 hPa SW 3.7 mph /  6 km/h 9.0 mph /  14.5 km/h 65 % 0.0 in /  0 mm
14:35 4.9 °F /  -15.1 °C -1.3 °F /  -18.5 °C 1012.1 in /  34269.7 hPa SW 5.1 mph /  8.2 km/h 8.7 mph /  14 km/h 64 % 0.0 in /  0 mm
14:40 4.9 °F /  -15.1 °C -1.6 °F /  -18.7 °C 1012.1 in /  34269.7 hPa SSW 4.5 mph /  7.2 km/h 6.1 mph /  9.8 km/h 63 % 0.0 in /  0 mm
14:45 4.9 °F /  -15.1 °C -1.6 °F /  -18.7 °C 1012.1 in /  34269.7 hPa South 3.9 mph /  6.3 km/h 5.8 mph /  9.3 km/h 63 % 0.0 in /  0 mm
14:50 4.9 °F /  -15.1 °C -1.8 °F /  -18.8 °C 1012.1 in /  34269.7 hPa South 3.5 mph /  5.6 km/h 5.8 mph /  9.3 km/h 62 % 0.0 in /  0 mm
14:55 4.8 °F /  -15.1 °C -2.1 °F /  -18.9 °C 1012.1 in /  34269.7 hPa SW 4.5 mph /  7.2 km/h 10.1 mph /  16.3 km/h 61 % 0.0 in /  0 mm
15:00 4.8 °F /  -15.1 °C -2.1 °F /  -18.9 °C 1012.1 in /  34269.7 hPa SW 5.6 mph /  9 km/h 10.1 mph /  16.3 km/h 61 % 0.0 in /  0 mm
15:05 4.8 °F /  -15.1 °C -2.3 °F /  -19.1 °C 1012.1 in /  34269.7 hPa SW 4.2 mph /  6.8 km/h 8.7 mph /  14 km/h 60 % 0.0 in /  0 mm
15:10 4.8 °F /  -15.1 °C -2.6 °F /  -19.2 °C 1012.1 in /  34269.7 hPa West 3.7 mph /  6 km/h 8.7 mph /  14 km/h 59 % 0.0 in /  0 mm
15:15 4.7 °F /  -15.2 °C -2.7 °F /  -19.3 °C 1012.1 in /  34269.7 hPa West 2.3 mph /  3.7 km/h 6.4 mph /  10.3 km/h 59 % 0.0 in /  0 mm
15:20 4.7 °F /  -15.2 °C -2.9 °F /  -19.4 °C 1012.1 in /  34269.7 hPa West 0.3 mph /  0.5 km/h 1.8 mph /  2.9 km/h 58 % 0.0 in /  0 mm
15:25 4.6 °F /  -15.2 °C -2.9 °F /  -19.4 °C 1012.1 in /  34269.7 hPa SW 0.3 mph /  0.5 km/h 4.3 mph /  6.9 km/h 58 % 0.0 in /  0 mm
15:40 4.3 °F /  -15.4 °C -3.7 °F /  -19.8 °C 1011.1 in /  34235.8 hPa SE 0.5 mph /  0.8 km/h 5.5 mph /  8.9 km/h 56 % 0.0 in /  0 mm
15:55 3.8 °F /  -15.7 °C -4.2 °F /  -20.1 °C 1011.1 in /  34235.8 hPa SSE 0.3 mph /  0.5 km/h 2.1 mph /  3.4 km/h 56 % 0.0 in /  0 mm
16:00 3.6 °F /  -15.8 °C -4.4 °F /  -20.2 °C 1011.1 in /  34235.8 hPa SW 1.3 mph /  2.1 km/h 3.5 mph /  5.6 km/h 56 % 0.0 in /  0 mm
16:05 3.5 °F /  -15.8 °C -4.4 °F /  -20.2 °C 1011.1 in /  34235.8 hPa SW 1.4 mph /  2.3 km/h 3.5 mph /  5.6 km/h 56 % 0.0 in /  0 mm
16:10 3.4 °F /  -15.9 °C -4.3 °F /  -20.2 °C 1011.1 in /  34235.8 hPa SW 0.2 mph /  0.3 km/h 1.8 mph /  2.9 km/h 57 % 0.0 in /  0 mm
16:15 3.3 °F /  -15.9 °C -4.4 °F /  -20.2 °C 1011.1 in /  34235.8 hPa Calm     57 % 0.0 in /  0 mm
16:20 3.1 °F /  -16.1 °C -4.6 °F /  -20.3 °C 1011.1 in /  34235.8 hPa Calm     57 % 0.0 in /  0 mm
16:25 3.1 °F /  -16.1 °C -4.6 °F /  -20.3 °C 1011.1 in /  34235.8 hPa Calm     57 % 0.0 in /  0 mm
16:30 3.0 °F /  -16.1 °C -4.4 °F /  -20.2 °C 1010.0 in /  34198.6 hPa Calm     58 % 0.0 in /  0 mm
16:35 2.9 °F /  -16.2 °C -4.3 °F /  -20.2 °C 1010.0 in /  34198.6 hPa Calm     59 % 0.0 in /  0 mm
16:40 2.8 °F /  -16.2 °C -4.4 °F /  -20.2 °C 1010.0 in /  34198.6 hPa Calm   3.5 mph /  5.6 km/h 59 % 0.0 in /  0 mm
16:45 2.7 °F /  -16.3 °C -4.5 °F /  -20.3 °C 1010.0 in /  34198.6 hPa NW 0.8 mph /  1.3 km/h 3.5 mph /  5.6 km/h 59 % 0.0 in /  0 mm
16:50 2.7 °F /  -16.3 °C -4.3 °F /  -20.2 °C 1010.0 in /  34198.6 hPa NW 1.0 mph /  1.6 km/h 3.5 mph /  5.6 km/h 60 % 0.0 in /  0 mm
16:55 2.5 °F /  -16.4 °C -4.5 °F /  -20.3 °C 1010.0 in /  34198.6 hPa NW 0.2 mph /  0.3 km/h 1.8 mph /  2.9 km/h 60 % 0.0 in /  0 mm
17:00 2.4 °F /  -16.4 °C -4.6 °F /  -20.3 °C 1010.0 in /  34198.6 hPa Calm     60 % 0.0 in /  0 mm
17:05 2.3 °F /  -16.5 °C -4.4 °F /  -20.2 °C 1010.0 in /  34198.6 hPa Calm     61 % 0.0 in /  0 mm
17:10 2.1 °F /  -16.6 °C -4.7 °F /  -20.4 °C 1010.0 in /  34198.6 hPa Calm     61 % 0.0 in /  0 mm
17:15 2.0 °F /  -16.7 °C -4.5 °F /  -20.3 °C 1010.0 in /  34198.6 hPa Calm   2.6 mph /  4.2 km/h 62 % 0.0 in /  0 mm
17:20 1.9 °F /  -16.7 °C -4.6 °F /  -20.3 °C 1010.0 in /  34198.6 hPa SW 0.2 mph /  0.3 km/h 2.6 mph /  4.2 km/h 62 % 0.0 in /  0 mm
17:25 1.7 °F /  -16.8 °C -4.6 °F /  -20.3 °C 1010.0 in /  34198.6 hPa SSW 0.2 mph /  0.3 km/h 1.8 mph /  2.9 km/h 63 % 0.0 in /  0 mm
17:30 1.6 °F /  -16.9 °C -4.7 °F /  -20.4 °C 1011.1 in /  34235.8 hPa Calm     63 % 0.0 in /  0 mm
17:35 1.4 °F /  -17 °C -4.9 °F /  -20.5 °C 1011.1 in /  34235.8 hPa SW 0.6 mph /  1 km/h 3.5 mph /  5.6 km/h 63 % 0.0 in /  0 mm
17:40 1.3 °F /  -17.1 °C -4.8 °F /  -20.4 °C 1011.1 in /  34235.8 hPa West 1.1 mph /  1.8 km/h 4.0 mph /  6.4 km/h 64 % 0.0 in /  0 mm
17:45 1.3 °F /  -17.1 °C -4.8 °F /  -20.4 °C 1011.1 in /  34235.8 hPa NW 1.0 mph /  1.6 km/h 4.3 mph /  6.9 km/h 64 % 0.0 in /  0 mm
17:50 1.1 °F /  -17.2 °C -4.9 °F /  -20.5 °C 1011.1 in /  34235.8 hPa NW 0.3 mph /  0.5 km/h 4.3 mph /  6.9 km/h 64 % 0.0 in /  0 mm
17:55 1.0 °F /  -17.2 °C -4.8 °F /  -20.4 °C 1011.1 in /  34235.8 hPa Calm   4.0 mph /  6.4 km/h 65 % 0.0 in /  0 mm
18:00 1.0 °F /  -17.2 °C -4.8 °F /  -20.4 °C 1011.1 in /  34235.8 hPa NW 0.8 mph /  1.3 km/h 4.7 mph /  7.6 km/h 65 % 0.0 in /  0 mm
18:05 0.9 °F /  -17.3 °C -4.7 °F /  -20.4 °C 1011.1 in /  34235.8 hPa NW 1.9 mph /  3.1 km/h 4.7 mph /  7.6 km/h 66 % 0.0 in /  0 mm
18:10 0.8 °F /  -17.3 °C -4.8 °F /  -20.4 °C 1011.1 in /  34235.8 hPa NW 1.3 mph /  2.1 km/h 4.0 mph /  6.4 km/h 66 % 0.0 in /  0 mm
18:15 0.7 °F /  -17.4 °C -4.7 °F /  -20.4 °C 1012.1 in /  34269.7 hPa WNW 0.2 mph /  0.3 km/h 1.4 mph /  2.3 km/h 67 % 0.0 in /  0 mm
18:20 0.7 °F /  -17.4 °C -4.7 °F /  -20.4 °C 1012.1 in /  34269.7 hPa Calm     67 % 0.0 in /  0 mm
18:25 0.6 °F /  -17.4 °C -4.8 °F /  -20.4 °C 1012.1 in /  34269.7 hPa Calm     67 % 0.0 in /  0 mm
18:30 0.6 °F /  -17.4 °C -4.6 °F /  -20.3 °C 1012.1 in /  34269.7 hPa Calm   2.6 mph /  4.2 km/h 68 % 0.0 in /  0 mm
18:35 0.6 °F /  -17.4 °C -4.6 °F /  -20.3 °C 1012.1 in /  34269.7 hPa WNW 0.2 mph /  0.3 km/h 2.6 mph /  4.2 km/h 68 % 0.0 in /  0 mm
18:40 0.6 °F /  -17.4 °C -4.4 °F /  -20.2 °C 1012.1 in /  34269.7 hPa WNW 0.2 mph /  0.3 km/h 2.6 mph /  4.2 km/h 69 % 0.0 in /  0 mm
18:45 0.5 °F /  -17.5 °C -4.6 °F /  -20.3 °C 1012.1 in /  34269.7 hPa Calm     69 % 0.0 in /  0 mm
18:50 0.5 °F /  -17.5 °C -4.6 °F /  -20.3 °C 1012.1 in /  34269.7 hPa Calm   2.1 mph /  3.4 km/h 69 % 0.0 in /  0 mm
18:55 0.5 °F /  -17.5 °C -4.3 °F /  -20.2 °C 1012.1 in /  34269.7 hPa Calm   2.1 mph /  3.4 km/h 70 % 0.0 in /  0 mm
19:00 0.5 °F /  -17.5 °C -4.3 °F /  -20.2 °C 1012.1 in /  34269.7 hPa Calm     70 % 0.0 in /  0 mm
19:05 0.5 °F /  -17.5 °C -4.2 °F /  -20.1 °C 1012.1 in /  34269.7 hPa WNW 0.5 mph /  0.8 km/h 4.0 mph /  6.4 km/h 71 % 0.0 in /  0 mm
19:10 0.5 °F /  -17.5 °C -4.2 °F /  -20.1 °C 1012.1 in /  34269.7 hPa WNW 0.8 mph /  1.3 km/h 4.0 mph /  6.4 km/h 71 % 0.0 in /  0 mm
19:15 0.5 °F /  -17.5 °C -4.2 °F /  -20.1 °C 1012.1 in /  34269.7 hPa WNW 0.3 mph /  0.5 km/h 2.1 mph /  3.4 km/h 71 % 0.0 in /  0 mm
19:20 0.4 °F /  -17.6 °C -4.3 °F /  -20.2 °C 1012.1 in /  34269.7 hPa WNW 0.3 mph /  0.5 km/h 2.6 mph /  4.2 km/h 71 % 0.0 in /  0 mm
19:25 0.3 °F /  -17.6 °C -4.2 °F /  -20.1 °C 1012.1 in /  34269.7 hPa WNW 1.3 mph /  2.1 km/h 4.3 mph /  6.9 km/h 72 % 0.0 in /  0 mm
19:30 0.3 °F /  -17.6 °C -4.2 °F /  -20.1 °C 1012.1 in /  34269.7 hPa West 2.3 mph /  3.7 km/h 4.7 mph /  7.6 km/h 72 % 0.0 in /  0 mm
19:35 0.3 °F /  -17.6 °C -4.2 °F /  -20.1 °C 1012.1 in /  34269.7 hPa WSW 1.3 mph /  2.1 km/h 4.7 mph /  7.6 km/h 72 % 0.0 in /  0 mm
19:40 0.2 °F /  -17.7 °C -4.3 °F /  -20.2 °C 1012.1 in /  34269.7 hPa Calm     72 % 0.0 in /  0 mm
19:45 0.1 °F /  -17.7 °C -4.2 °F /  -20.1 °C 1012.1 in /  34269.7 hPa Calm     73 % 0.0 in /  0 mm
19:50 0.1 °F /  -17.7 °C -4.2 °F /  -20.1 °C 1012.1 in /  34269.7 hPa NNW 0.5 mph /  0.8 km/h 3.2 mph /  5.1 km/h 73 % 0.0 in /  0 mm
19:55 0.1 °F /  -17.7 °C -4.2 °F /  -20.1 °C 1012.1 in /  34269.7 hPa NNW 0.5 mph /  0.8 km/h 3.2 mph /  5.1 km/h 73 % 0.0 in /  0 mm
20:00 0.1 °F /  -17.7 °C -4.2 °F /  -20.1 °C 1012.1 in /  34269.7 hPa Calm     73 % 0.0 in /  0 mm
20:05 0.1 °F /  -17.7 °C -4.0 °F /  -20 °C 1012.1 in /  34269.7 hPa Calm     74 % 0.0 in /  0 mm
20:10 0.1 °F /  -17.7 °C -4.0 °F /  -20 °C 1012.1 in /  34269.7 hPa NNW 1.0 mph /  1.6 km/h 3.5 mph /  5.6 km/h 74 % 0.0 in /  0 mm
20:15 0.1 °F /  -17.7 °C -4.0 °F /  -20 °C 1012.1 in /  34269.7 hPa NNW 2.1 mph /  3.4 km/h 3.5 mph /  5.6 km/h 74 % 0.0 in /  0 mm
20:20 0.1 °F /  -17.7 °C -3.8 °F /  -19.9 °C 1012.1 in /  34269.7 hPa NNW 1.3 mph /  2.1 km/h 3.5 mph /  5.6 km/h 75 % 0.0 in /  0 mm
20:26 0.1 °F /  -17.7 °C -3.8 °F /  -19.9 °C 1012.1 in /  34269.7 hPa Calm     75 % 0.0 in /  0 mm
20:31 0.1 °F /  -17.7 °C -3.8 °F /  -19.9 °C 1012.1 in /  34269.7 hPa NNW 0.2 mph /  0.3 km/h 2.1 mph /  3.4 km/h 75 % 0.0 in /  0 mm
20:36 0.1 °F /  -17.7 °C -3.8 °F /  -19.9 °C 1012.1 in /  34269.7 hPa NNW 0.3 mph /  0.5 km/h 2.6 mph /  4.2 km/h 75 % 0.0 in /  0 mm
20:41 0.2 °F /  -17.7 °C -3.7 °F /  -19.8 °C 1012.1 in /  34269.7 hPa NNW 0.3 mph /  0.5 km/h 2.6 mph /  4.2 km/h 75 % 0.0 in /  0 mm
20:46 0.2 °F /  -17.7 °C -3.6 °F /  -19.8 °C 1012.1 in /  34269.7 hPa Calm     76 % 0.0 in /  0 mm
20:51 0.3 °F /  -17.6 °C -3.4 °F /  -19.7 °C 1012.1 in /  34269.7 hPa SE 0.2 mph /  0.3 km/h 3.5 mph /  5.6 km/h 76 % 0.0 in /  0 mm
20:56 0.3 °F /  -17.6 °C -3.4 °F /  -19.7 °C 1013.1 in /  34303.6 hPa SE 0.3 mph /  0.5 km/h 3.5 mph /  5.6 km/h 76 % 0.0 in /  0 mm
21:01 0.4 °F /  -17.6 °C -3.3 °F /  -19.6 °C 1013.1 in /  34303.6 hPa SSW 0.5 mph /  0.8 km/h 2.6 mph /  4.2 km/h 76 % 0.0 in /  0 mm
21:06 0.4 °F /  -17.6 °C -3.2 °F /  -19.6 °C 1013.1 in /  34303.6 hPa SSW 0.5 mph /  0.8 km/h 2.6 mph /  4.2 km/h 77 % 0.0 in /  0 mm
21:11 0.4 °F /  -17.6 °C -3.2 °F /  -19.6 °C 1012.1 in /  34269.7 hPa NW 0.5 mph /  0.8 km/h 2.6 mph /  4.2 km/h 77 % 0.0 in /  0 mm
21:16 0.4 °F /  -17.6 °C -3.2 °F /  -19.6 °C 1012.1 in /  34269.7 hPa NW 0.8 mph /  1.3 km/h 3.5 mph /  5.6 km/h 77 % 0.0 in /  0 mm
21:21 0.4 °F /  -17.6 °C -3.2 °F /  -19.6 °C 1012.1 in /  34269.7 hPa NW 1.0 mph /  1.6 km/h 3.5 mph /  5.6 km/h 77 % 0.0 in /  0 mm
21:26 0.4 °F /  -17.6 °C -3.2 °F /  -19.6 °C 1012.1 in /  34269.7 hPa NW 0.5 mph /  0.8 km/h 2.6 mph /  4.2 km/h 77 % 0.0 in /  0 mm
21:31 0.4 °F /  -17.6 °C -3.2 °F /  -19.6 °C 1012.1 in /  34269.7 hPa Calm     77 % 0.0 in /  0 mm
21:36 0.4 °F /  -17.6 °C -3.2 °F /  -19.6 °C 1012.1 in /  34269.7 hPa Calm     77 % 0.0 in /  0 mm
21:41 0.4 °F /  -17.6 °C -3.0 °F /  -19.4 °C 1012.1 in /  34269.7 hPa Calm     78 % 0.0 in /  0 mm
21:46 0.4 °F /  -17.6 °C -3.0 °F /  -19.4 °C 1012.1 in /  34269.7 hPa Calm     78 % 0.0 in /  0 mm
21:51 0.4 °F /  -17.6 °C -3.0 °F /  -19.4 °C 1012.1 in /  34269.7 hPa Calm     78 % 0.0 in /  0 mm
21:56 0.4 °F /  -17.6 °C -3.0 °F /  -19.4 °C 1012.1 in /  34269.7 hPa Calm     78 % 0.0 in /  0 mm
22:01 0.4 °F /  -17.6 °C -3.0 °F /  -19.4 °C 1012.1 in /  34269.7 hPa WNW 0.2 mph /  0.3 km/h 3.5 mph /  5.6 km/h 78 % 0.0 in /  0 mm
22:06 0.4 °F /  -17.6 °C -3.0 °F /  -19.4 °C 1012.1 in /  34269.7 hPa WNW 0.5 mph /  0.8 km/h 3.5 mph /  5.6 km/h 78 % 0.0 in /  0 mm
22:11 0.4 °F /  -17.6 °C -3.0 °F /  -19.4 °C 1012.1 in /  34269.7 hPa WNW 0.3 mph /  0.5 km/h 1.8 mph /  2.9 km/h 78 % 0.0 in /  0 mm
22:16 0.4 °F /  -17.6 °C -3.0 °F /  -19.4 °C 1012.1 in /  34269.7 hPa Calm     78 % 0.0 in /  0 mm
22:21 0.4 °F /  -17.6 °C -2.8 °F /  -19.3 °C 1012.1 in /  34269.7 hPa Calm     79 % 0.0 in /  0 mm
22:26 0.4 °F /  -17.6 °C -2.8 °F /  -19.3 °C 1012.1 in /  34269.7 hPa Calm     79 % 0.0 in /  0 mm
22:31 0.4 °F /  -17.6 °C -2.8 °F /  -19.3 °C 1012.1 in /  34269.7 hPa Calm     79 % 0.0 in /  0 mm
22:36 0.4 °F /  -17.6 °C -2.8 °F /  -19.3 °C 1012.1 in /  34269.7 hPa Calm     79 % 0.0 in /  0 mm
22:41 0.5 °F /  -17.5 °C -2.7 °F /  -19.3 °C 1012.1 in /  34269.7 hPa Calm     79 % 0.0 in /  0 mm
22:46 0.5 °F /  -17.5 °C -2.7 °F /  -19.3 °C 1012.1 in /  34269.7 hPa WNW 0.2 mph /  0.3 km/h 3.5 mph /  5.6 km/h 79 % 0.0 in /  0 mm
22:51 0.5 °F /  -17.5 °C -2.7 °F /  -19.3 °C 1012.1 in /  34269.7 hPa WNW 0.5 mph /  0.8 km/h 3.5 mph /  5.6 km/h 79 % 0.0 in /  0 mm
22:56 0.5 °F /  -17.5 °C -2.7 °F /  -19.3 °C 1013.1 in /  34303.6 hPa WSW 0.8 mph /  1.3 km/h 4.0 mph /  6.4 km/h 79 % 0.0 in /  0 mm
23:01 0.5 °F /  -17.5 °C -2.7 °F /  -19.3 °C 1013.1 in /  34303.6 hPa SW 1.9 mph /  3.1 km/h 4.0 mph /  6.4 km/h 79 % 0.0 in /  0 mm
23:06 0.5 °F /  -17.5 °C -2.6 °F /  -19.2 °C 1013.1 in /  34303.6 hPa SW 1.9 mph /  3.1 km/h 4.0 mph /  6.4 km/h 80 % 0.0 in /  0 mm
23:11 0.5 °F /  -17.5 °C -2.6 °F /  -19.2 °C 1013.1 in /  34303.6 hPa NNW 0.3 mph /  0.5 km/h 3.2 mph /  5.1 km/h 80 % 0.0 in /  0 mm
23:16 0.5 °F /  -17.5 °C -2.6 °F /  -19.2 °C 1013.1 in /  34303.6 hPa Calm     80 % 0.0 in /  0 mm
23:21 0.5 °F /  -17.5 °C -2.6 °F /  -19.2 °C 1013.1 in /  34303.6 hPa Calm     80 % 0.0 in /  0 mm
23:26 0.5 °F /  -17.5 °C -2.6 °F /  -19.2 °C 1013.1 in /  34303.6 hPa Calm     80 % 0.0 in /  0 mm
23:31 0.5 °F /  -17.5 °C -2.6 °F /  -19.2 °C 1013.1 in /  34303.6 hPa Calm     80 % 0.0 in /  0 mm
23:36 0.5 °F /  -17.5 °C -2.6 °F /  -19.2 °C 1013.1 in /  34303.6 hPa Calm     80 % 0.0 in /  0 mm
23:41 0.5 °F /  -17.5 °C -2.6 °F /  -19.2 °C 1013.1 in /  34303.6 hPa Calm     80 % 0.0 in /  0 mm
23:46 0.5 °F /  -17.5 °C -2.6 °F /  -19.2 °C 1013.1 in /  34303.6 hPa Calm     80 % 0.0 in /  0 mm
23:51 0.5 °F /  -17.5 °C -2.4 °F /  -19.1 °C 1013.1 in /  34303.6 hPa Calm     81 % 0.0 in /  0 mm
23:56 0.5 °F /  -17.5 °C -2.4 °F /  -19.1 °C 1013.1 in /  34303.6 hPa Calm     81 % 0.0 in /  0 mm
Vremenska postaja Senovo
Podatki zbrani iz Weather Underground - 2.75 mb

Script developed by  Jim McMurry - jmcmurry@mwt.net Adapted for the template by  Wim van der Kuil - Leuven-Template.eu

Vremenski podatki so objavljeni na:

European Weather Network

WeatherCloud

Weather Underground

AWEKAS

HAMweather, WeatherForYou, PWS Weather

MapView

Geostik

Slovenia weather network

Oprema, ki se uporablja:

Vremenski program
Cumulus

Vremenski server
Asus

Cumulus

Asus